Time;durP1;ratioP1;P1;durP2;ratioP2;P2;SDS_P1;SDS_P2;PMS_P1;PMS_P2;Temp;Humidity;BMP_temperature;BMP_pressure;BME280_temperature;BME280_humidity;BME280_pressure;Samples;Min_cycle;Max_cycle;Signal;HPM_P1;HPM_P2
2022/03/24 00:01:49;;;;;;;49.87;29.43;;;6.20;99.90;;;;;;4807652;29;20114;-82
2022/03/24 00:04:15;;;;;;;48.43;28.83;;;6.20;99.90;;;;;;4805813;29;20125;-82
2022/03/24 00:06:41;;;;;;;51.00;29.70;;;6.20;99.90;;;;;;4805710;29;20502;-82
2022/03/24 00:09:07;;;;;;;45.83;27.63;;;6.20;99.90;;;;;;4824937;29;20050;-82
2022/03/24 00:11:32;;;;;;;49.47;28.40;;;6.20;99.90;;;;;;4812458;29;20436;-83
2022/03/24 00:13:58;;;;;;;45.73;28.33;;;6.20;99.90;;;;;;4799352;29;20388;-82
2022/03/24 00:16:26;;;;;;;47.37;27.90;;;6.20;99.90;;;;;;4782339;29;20124;-82
2022/03/24 00:18:52;;;;;;;44.60;28.03;;;6.20;99.90;;;;;;4812574;29;20037;-82
2022/03/24 00:21:18;;;;;;;46.47;27.17;;;6.20;99.90;;;;;;4797485;29;20517;-82
2022/03/24 00:23:44;;;;;;;50.10;28.97;;;6.20;99.90;;;;;;4809532;29;20042;-82
2022/03/24 00:26:10;;;;;;;47.87;28.53;;;6.20;99.90;;;;;;4801477;29;20128;-82
2022/03/24 00:28:36;;;;;;;46.10;27.37;;;6.20;99.90;;;;;;4804610;29;20046;-82
2022/03/24 00:31:02;;;;;;;49.83;28.87;;;6.20;99.90;;;;;;4812238;29;20049;-82
2022/03/24 00:33:29;;;;;;;47.53;28.60;;;6.20;99.90;;;;;;4797603;29;20121;-81
2022/03/24 00:35:56;;;;;;;48.63;26.53;;;6.10;99.90;;;;;;4816283;29;20484;-82
2022/03/24 00:38:22;;;;;;;50.67;27.50;;;6.10;99.90;;;;;;4825428;29;20037;-82
2022/03/24 00:40:48;;;;;;;56.20;31.07;;;6.00;99.90;;;;;;4811438;29;20551;-82
2022/03/24 00:43:14;;;;;;;47.97;27.70;;;6.00;99.90;;;;;;4797420;29;20176;-82
2022/03/24 00:45:40;;;;;;;50.43;28.03;;;6.00;99.90;;;;;;4827719;29;20042;-81
2022/03/24 00:48:07;;;;;;;49.70;28.43;;;5.90;99.90;;;;;;4782404;29;20147;-82
2022/03/24 00:50:34;;;;;;;49.13;29.20;;;5.80;99.90;;;;;;4812320;29;20461;-82
2022/03/24 00:53:01;;;;;;;47.00;26.97;;;5.70;99.90;;;;;;4811916;29;20529;-82
2022/03/24 00:55:26;;;;;;;50.47;29.17;;;5.70;99.90;;;;;;4785005;29;20087;-82
2022/03/24 00:57:55;;;;;;;51.90;28.70;;;5.70;99.90;;;;;;4811603;29;20037;-82
2022/03/24 01:00:25;;;;;;;48.13;28.23;;;5.70;99.90;;;;;;4776194;29;20066;-82
2022/03/24 01:02:53;;;;;;;51.50;28.97;;;5.70;99.90;;;;;;4804178;29;20368;-82
2022/03/24 01:05:19;;;;;;;49.83;28.57;;;5.70;99.90;;;;;;4790244;29;20454;-82
2022/03/24 01:07:46;;;;;;;53.63;30.63;;;5.60;99.90;;;;;;4788482;29;20054;-82
2022/03/24 01:10:15;;;;;;;54.43;30.07;;;5.60;99.90;;;;;;4793726;29;21675;-82
2022/03/24 01:12:42;;;;;;;53.87;29.93;;;5.60;99.90;;;;;;4790669;29;20077;-82
2022/03/24 01:15:14;;;;;;;49.30;27.90;;;5.60;99.90;;;;;;4809746;29;20066;-81
2022/03/24 01:17:40;;;;;;;54.80;31.13;;;5.60;99.90;;;;;;4792833;29;20122;-82
2022/03/24 01:20:07;;;;;;;56.40;30.93;;;5.60;99.90;;;;;;4793298;29;20043;-82
2022/03/24 01:22:33;;;;;;;50.67;29.00;;;5.60;99.90;;;;;;4793573;29;20451;-82
2022/03/24 01:24:59;;;;;;;50.23;28.60;;;5.50;99.90;;;;;;4784278;29;20049;-82
2022/03/24 01:27:26;;;;;;;52.13;29.57;;;5.50;99.90;;;;;;4778752;29;20482;-82
2022/03/24 01:29:56;;;;;;;54.20;30.93;;;5.40;99.90;;;;;;4790654;29;20042;-82
2022/03/24 01:32:22;;;;;;;58.43;31.30;;;5.40;99.90;;;;;;4808358;29;20051;-82
2022/03/24 01:34:48;;;;;;;53.97;30.23;;;5.30;99.90;;;;;;4797256;29;20046;-82
2022/03/24 01:37:14;;;;;;;55.70;31.33;;;5.20;99.90;;;;;;4775236;29;20100;-82
2022/03/24 01:39:40;;;;;;;56.47;30.67;;;5.20;99.90;;;;;;4801794;29;20047;-82
2022/03/24 01:42:06;;;;;;;60.50;32.07;;;5.20;99.90;;;;;;4807770;29;20053;-82
2022/03/24 01:44:33;;;;;;;56.33;31.53;;;5.20;99.90;;;;;;4808486;29;20043;-81
2022/03/24 01:47:05;;;;;;;57.77;32.63;;;5.20;99.90;;;;;;4778339;29;20110;-82
2022/03/24 01:49:36;;;;;;;60.20;33.13;;;5.10;99.90;;;;;;4803762;29;20407;-82
2022/03/24 01:52:07;;;;;;;54.97;31.60;;;5.20;99.90;;;;;;4796962;29;20127;-82
2022/03/24 01:54:35;;;;;;;59.50;34.03;;;5.10;99.90;;;;;;4808398;29;20046;-82
2022/03/24 01:57:03;;;;;;;50.20;29.97;;;5.10;99.90;;;;;;4798781;29;20063;-82
2022/03/24 01:59:29;;;;;;;58.60;31.93;;;5.10;99.90;;;;;;4805762;29;20054;-81
2022/03/24 02:01:54;;;;;;;54.60;30.90;;;5.00;99.90;;;;;;4817882;29;20049;-82
2022/03/24 02:04:21;;;;;;;53.47;30.97;;;5.00;99.90;;;;;;4808819;29;20392;-82
2022/03/24 02:06:48;;;;;;;61.13;33.60;;;4.90;99.90;;;;;;4809991;29;20050;-82
2022/03/24 02:09:14;;;;;;;59.27;34.03;;;4.80;99.90;;;;;;4824818;29;20077;-82
2022/03/24 02:11:40;;;;;;;61.30;34.67;;;4.80;99.90;;;;;;4792206;29;20065;-81
2022/03/24 02:14:06;;;;;;;61.10;33.43;;;4.70;99.90;;;;;;4809585;29;20052;-82
2022/03/24 02:16:34;;;;;;;61.43;34.00;;;4.70;99.90;;;;;;4811627;29;20046;-82
2022/03/24 02:19:34;;;;;;;60.37;33.40;;;4.70;99.90;;;;;;4810929;29;20420;-82
2022/03/24 02:22:09;;;;;;;62.07;34.83;;;4.60;99.90;;;;;;4780406;29;20060;-82
2022/03/24 02:24:37;;;;;;;57.60;31.00;;;4.60;99.90;;;;;;4815804;29;20121;-82
2022/03/24 02:27:03;;;;;;;61.53;32.73;;;4.50;99.90;;;;;;4798970;29;20054;-82
2022/03/24 02:29:29;;;;;;;59.03;32.53;;;4.50;99.90;;;;;;4818394;29;20061;-82
2022/03/24 02:31:55;;;;;;;67.37;35.13;;;4.50;99.90;;;;;;4809317;29;20459;-82
2022/03/24 02:34:37;;;;;;;63.57;34.87;;;4.60;99.90;;;;;;4780466;29;20866;-82
2022/03/24 02:37:07;;;;;;;59.13;34.40;;;4.50;99.90;;;;;;4810384;29;20073;-82
2022/03/24 02:39:38;;;;;;;67.07;34.70;;;4.50;99.90;;;;;;4825337;29;20121;-82
2022/03/24 02:42:06;;;;;;;59.73;32.53;;;4.50;99.90;;;;;;4803992;29;20042;-82
2022/03/24 02:44:32;;;;;;;61.83;33.67;;;4.50;99.90;;;;;;4821999;29;20110;-82
2022/03/24 02:47:01;;;;;;;64.50;35.50;;;4.50;99.90;;;;;;4809965;29;20042;-82
2022/03/24 02:49:30;;;;;;;66.50;36.07;;;4.50;99.90;;;;;;4808717;29;20441;-82
2022/03/24 02:52:00;;;;;;;60.53;34.80;;;4.60;99.90;;;;;;4809727;29;20448;-81
2022/03/24 02:54:28;;;;;;;62.63;34.10;;;4.40;99.90;;;;;;4809259;29;20054;-82
2022/03/24 02:56:55;;;;;;;65.57;36.30;;;4.40;99.90;;;;;;4807720;29;20491;-82
2022/03/24 02:59:21;;;;;;;70.13;37.27;;;4.40;99.90;;;;;;4809833;29;20050;-82
2022/03/24 03:01:55;;;;;;;67.00;37.67;;;4.40;99.90;;;;;;4807832;29;20130;-81
2022/03/24 03:04:21;;;;;;;60.47;34.00;;;4.40;99.90;;;;;;4820650;29;20444;-82
2022/03/24 03:06:48;;;;;;;69.60;37.80;;;4.40;99.90;;;;;;4798332;29;20058;-82
2022/03/24 03:09:15;;;;;;;68.10;38.90;;;4.30;99.90;;;;;;4823389;29;20046;-82
2022/03/24 03:11:47;;;;;;;68.23;38.87;;;4.30;99.90;;;;;;4824645;29;20050;-82
2022/03/24 03:14:15;;;;;;;70.97;39.17;;;4.20;99.90;;;;;;4824595;29;20423;-82
2022/03/24 03:16:41;;;;;;;70.33;40.87;;;4.20;99.90;;;;;;4824425;29;20109;-82
2022/03/24 03:19:08;;;;;;;73.23;40.60;;;4.20;99.90;;;;;;4813188;29;20049;-81
2022/03/24 03:21:39;;;;;;;69.57;40.17;;;4.30;99.90;;;;;;4794229;29;20122;-81
2022/03/24 03:24:06;;;;;;;67.27;38.13;;;4.20;99.90;;;;;;4824860;29;20046;-82
2022/03/24 03:26:31;;;;;;;73.90;38.83;;;4.20;99.90;;;;;;4808055;29;20053;-82
2022/03/24 03:28:57;;;;;;;70.57;38.90;;;4.20;99.90;;;;;;4825332;29;20042;-82
2022/03/24 03:31:23;;;;;;;70.50;38.17;;;4.20;99.90;;;;;;4826182;29;20057;-82
2022/03/24 03:33:52;;;;;;;75.90;40.30;;;4.20;99.90;;;;;;4805075;29;20153;-82
2022/03/24 03:36:19;;;;;;;70.63;40.33;;;4.10;99.90;;;;;;4827542;29;20049;-81
2022/03/24 03:38:45;;;;;;;68.73;39.57;;;4.10;99.90;;;;;;4813242;29;20400;-82
2022/03/24 03:41:12;;;;;;;66.57;37.70;;;4.10;99.90;;;;;;4827921;29;20038;-81
2022/03/24 03:43:38;;;;;;;67.50;36.77;;;4.00;99.90;;;;;;4824887;29;20054;-82
2022/03/24 03:46:04;;;;;;;69.53;38.30;;;4.10;99.90;;;;;;4804192;29;20045;-81
2022/03/24 03:48:30;;;;;;;70.10;38.87;;;3.90;99.90;;;;;;4782864;29;20030;-81
2022/03/24 03:50:56;;;;;;;70.00;39.03;;;3.90;99.90;;;;;;4812478;29;20550;-82
2022/03/24 03:53:23;;;;;;;75.77;41.50;;;4.00;99.90;;;;;;4810941;29;20046;-82
2022/03/24 03:55:49;;;;;;;74.40;43.00;;;3.90;99.90;;;;;;4800165;29;20390;-81
2022/03/24 03:58:15;;;;;;;82.00;42.40;;;3.90;99.90;;;;;;4813164;29;20086;-82
2022/03/24 04:00:53;;;;;;;77.70;40.53;;;3.80;99.90;;;;;;4827218;29;20089;-83
2022/03/24 04:03:27;;;;;;;76.37;41.53;;;3.80;99.90;;;;;;4810665;29;20046;-82
2022/03/24 04:05:58;;;;;;;78.37;39.77;;;3.90;99.90;;;;;;4813057;29;20038;-82
2022/03/24 04:08:24;;;;;;;76.72;40.85;;;3.90;99.90;;;;;;4821782;29;20034;-82
2022/03/24 04:10:51;;;;;;;77.63;43.03;;;3.70;99.90;;;;;;4797330;29;20316;-82
2022/03/24 04:13:18;;;;;;;81.57;45.30;;;3.80;99.90;;;;;;4827161;29;20121;-83
2022/03/24 04:15:45;;;;;;;83.17;45.37;;;3.70;99.90;;;;;;4812684;29;20102;-82
2022/03/24 04:18:11;;;;;;;78.63;43.37;;;3.70;99.90;;;;;;4827652;29;20076;-82
2022/03/24 04:20:38;;;;;;;71.83;40.23;;;3.70;99.90;;;;;;4827595;29;20037;-82
2022/03/24 04:23:08;;;;;;;72.23;41.90;;;3.60;99.90;;;;;;4811292;29;20114;-82
2022/03/24 04:25:35;;;;;;;81.03;44.43;;;3.60;99.90;;;;;;4821256;29;20063;-82
2022/03/24 04:28:01;;;;;;;76.83;41.20;;;3.60;99.90;;;;;;4827490;29;20053;-82
2022/03/24 04:30:27;;;;;;;76.77;41.07;;;3.60;99.90;;;;;;4844105;29;20048;-82
2022/03/24 04:32:54;;;;;;;77.57;42.10;;;3.60;99.90;;;;;;4812458;29;20078;-82
2022/03/24 04:35:21;;;;;;;74.27;42.77;;;3.50;99.90;;;;;;4827439;29;20045;-82
2022/03/24 04:37:48;;;;;;;82.67;45.43;;;3.50;99.90;;;;;;4816744;29;20047;-82
2022/03/24 04:40:17;;;;;;;80.10;44.20;;;3.60;99.90;;;;;;4825928;29;20042;-82
2022/03/24 04:42:44;;;;;;;77.57;44.17;;;3.50;99.90;;;;;;4801706;29;20102;-82
2022/03/24 04:45:10;;;;;;;71.10;38.33;;;3.60;99.90;;;;;;4816116;29;20546;-82
2022/03/24 04:47:37;;;;;;;82.83;44.17;;;3.60;99.90;;;;;;4827022;29;20124;-82
2022/03/24 04:50:04;;;;;;;76.00;40.07;;;3.50;99.90;;;;;;4830047;29;20084;-82
2022/03/24 04:52:31;;;;;;;73.80;41.43;;;3.50;99.90;;;;;;4813668;29;20257;-82
2022/03/24 04:54:58;;;;;;;77.03;42.63;;;3.40;99.90;;;;;;4842186;29;20057;-82
2022/03/24 04:57:25;;;;;;;79.53;42.20;;;3.40;99.90;;;;;;4825985;29;20038;-82
2022/03/24 04:59:50;;;;;;;86.50;44.77;;;3.30;99.90;;;;;;4800454;29;20050;-82
2022/03/24 05:02:18;;;;;;;80.43;44.07;;;3.40;99.90;;;;;;4809275;29;20042;-82
2022/03/24 05:04:44;;;;;;;85.60;46.03;;;3.30;99.90;;;;;;4826060;29;20061;-82
2022/03/24 05:07:10;;;;;;;86.70;47.07;;;3.30;99.90;;;;;;4817230;29;20049;-82
2022/03/24 05:09:37;;;;;;;83.70;45.83;;;3.30;99.90;;;;;;4814317;29;20053;-82
2022/03/24 05:12:03;;;;;;;87.80;48.03;;;3.30;99.90;;;;;;4811319;29;20505;-81
2022/03/24 05:14:31;;;;;;;78.77;43.70;;;3.30;99.90;;;;;;4811754;29;20080;-81
2022/03/24 05:16:57;;;;;;;83.13;47.90;;;3.30;99.90;;;;;;4799748;29;20122;-82
2022/03/24 05:19:23;;;;;;;79.50;45.03;;;3.30;99.90;;;;;;4811256;29;20048;-81
2022/03/24 05:21:49;;;;;;;78.83;43.97;;;3.20;99.90;;;;;;4803577;29;20038;-82
2022/03/24 05:24:15;;;;;;;88.00;46.17;;;3.20;99.90;;;;;;4809775;29;20053;-82
2022/03/24 05:26:41;;;;;;;74.30;42.57;;;3.20;99.90;;;;;;4807571;29;20050;-82
2022/03/24 05:29:06;;;;;;;80.13;45.53;;;3.20;99.90;;;;;;4794976;29;20046;-81
2022/03/24 05:31:32;;;;;;;89.97;48.63;;;3.10;99.90;;;;;;4825138;29;20042;-82
2022/03/24 05:33:58;;;;;;;90.60;49.93;;;3.10;99.90;;;;;;4796445;29;20082;-82
2022/03/24 05:36:25;;;;;;;97.70;53.70;;;3.20;99.90;;;;;;4810852;29;20049;-82
2022/03/24 05:38:51;;;;;;;87.60;48.73;;;3.20;99.90;;;;;;4802356;29;20052;-82
2022/03/24 05:41:17;;;;;;;87.53;48.77;;;3.20;99.90;;;;;;4811734;29;20125;-82
2022/03/24 05:44:02;;;;;;;95.33;53.77;;;3.20;99.90;;;;;;4825944;29;20050;-82
2022/03/24 05:46:36;;;;;;;90.63;50.90;;;3.20;99.90;;;;;;4796910;29;20042;-82
2022/03/24 05:49:06;;;;;;;82.53;47.70;;;3.20;99.90;;;;;;4795781;29;20053;-82
2022/03/24 05:51:32;;;;;;;91.63;50.20;;;3.20;99.90;;;;;;4810690;29;20053;-82
2022/03/24 05:53:58;;;;;;;100.10;53.60;;;3.30;99.90;;;;;;4825247;29;20045;-82
2022/03/24 05:56:24;;;;;;;91.60;51.87;;;3.30;99.90;;;;;;4797113;29;20042;-82
2022/03/24 05:58:50;;;;;;;91.83;50.43;;;3.30;99.90;;;;;;4807790;29;20048;-83
2022/03/24 06:01:17;;;;;;;89.00;48.03;;;3.30;99.90;;;;;;4793370;29;20055;-82
2022/03/24 06:03:45;;;;;;;81.93;47.73;;;3.30;99.90;;;;;;4792825;29;20054;-82
2022/03/24 06:06:12;;;;;;;90.13;50.33;;;3.40;99.90;;;;;;4789319;29;20053;-82
2022/03/24 06:08:42;;;;;;;97.93;52.67;;;3.40;99.90;;;;;;4793001;29;20046;-82
2022/03/24 06:11:13;;;;;;;97.90;53.33;;;3.40;99.90;;;;;;4792712;29;20043;-82
2022/03/24 06:13:40;;;;;;;96.13;54.27;;;3.40;99.90;;;;;;4792995;29;20138;-82
2022/03/24 06:16:06;;;;;;;91.57;51.97;;;3.50;99.90;;;;;;4792343;29;20042;-83
2022/03/24 06:18:39;;;;;;;93.37;51.70;;;3.60;99.90;;;;;;4792659;29;20046;-83
2022/03/24 06:21:05;;;;;;;94.93;51.67;;;3.70;99.90;;;;;;4784406;29;20522;-83
2022/03/24 06:23:31;;;;;;;98.50;52.20;;;3.60;99.90;;;;;;4807798;29;20050;-82
2022/03/24 06:25:58;;;;;;;99.83;54.17;;;3.80;99.90;;;;;;4790156;29;20532;-82
2022/03/24 06:28:24;;;;;;;99.70;54.67;;;3.80;99.90;;;;;;4782985;29;20180;-82
2022/03/24 06:30:50;;;;;;;95.03;52.17;;;3.90;99.90;;;;;;4801298;29;20099;-82
2022/03/24 06:33:16;;;;;;;107.77;57.20;;;4.00;99.90;;;;;;4792475;29;20100;-83
2022/03/24 06:35:46;;;;;;;99.33;54.63;;;4.10;99.90;;;;;;4807086;29;20121;-83
2022/03/24 06:38:13;;;;;;;97.97;54.97;;;4.10;99.90;;;;;;4807303;29;20046;-82
2022/03/24 06:40:39;;;;;;;103.13;54.60;;;4.20;99.90;;;;;;4806505;29;20042;-82
2022/03/24 06:43:07;;;;;;;99.73;53.63;;;4.40;99.90;;;;;;4791613;29;20042;-83
2022/03/24 06:45:34;;;;;;;101.47;55.77;;;4.50;99.90;;;;;;4824273;29;20439;-82
2022/03/24 06:48:00;;;;;;;105.13;56.20;;;4.60;99.90;;;;;;4793471;29;20115;-82
2022/03/24 06:50:26;;;;;;;101.77;54.37;;;4.70;99.90;;;;;;4808416;29;20038;-82
2022/03/24 06:52:52;;;;;;;105.77;57.73;;;4.70;99.90;;;;;;4795904;29;20506;-82
2022/03/24 06:55:18;;;;;;;103.53;57.20;;;4.90;99.90;;;;;;4807577;29;20089;-82
2022/03/24 06:57:45;;;;;;;103.23;57.93;;;5.00;99.90;;;;;;4807294;29;20130;-82
2022/03/24 07:00:12;;;;;;;103.17;57.37;;;5.10;99.90;;;;;;4792137;29;20058;-82
2022/03/24 07:02:38;;;;;;;108.07;60.43;;;5.20;99.90;;;;;;4802183;29;20134;-82
2022/03/24 07:05:08;;;;;;;103.03;56.53;;;5.40;99.90;;;;;;4792877;29;20119;-82
2022/03/24 07:07:34;;;;;;;100.83;58.07;;;5.50;99.90;;;;;;4819135;29;20046;-82
2022/03/24 07:10:01;;;;;;;110.03;59.40;;;5.60;99.90;;;;;;4810846;29;20452;-82
2022/03/24 07:12:26;;;;;;;96.77;56.13;;;5.70;99.90;;;;;;4825968;29;20085;-83
2022/03/24 07:14:52;;;;;;;101.83;57.37;;;5.90;99.90;;;;;;4826206;29;20483;-82
2022/03/24 07:17:19;;;;;;;99.10;56.80;;;5.90;99.90;;;;;;4821834;29;20410;-82
2022/03/24 07:19:45;;;;;;;100.00;55.03;;;6.00;99.90;;;;;;4818730;29;20102;-83
2022/03/24 07:22:11;;;;;;;104.33;57.87;;;6.20;99.90;;;;;;4822330;29;20046;-83
2022/03/24 07:24:38;;;;;;;102.03;56.03;;;6.30;99.90;;;;;;4825292;29;20038;-83
2022/03/24 07:27:17;;;;;;;98.77;57.50;;;6.50;99.90;;;;;;4830131;29;20042;-81
2022/03/24 07:30:02;;;;;;;96.67;55.03;;;6.60;99.90;;;;;;4815383;29;20050;-82
2022/03/24 07:32:28;;;;;;;94.13;52.67;;;6.70;99.90;;;;;;4806000;29;20509;-82
2022/03/24 07:34:55;;;;;;;93.90;52.93;;;6.90;99.90;;;;;;4787150;29;20065;-81
2022/03/24 07:37:21;;;;;;;88.73;52.33;;;7.10;99.90;;;;;;4805062;29;20559;-82
2022/03/24 07:39:47;;;;;;;88.00;52.97;;;7.30;99.90;;;;;;4803786;29;20058;-82
2022/03/24 07:42:37;;;;;;;87.87;51.73;;;7.40;99.90;;;;;;4809244;29;20042;-82
2022/03/24 07:45:06;;;;;;;86.60;49.87;;;7.60;99.90;;;;;;4798813;29;20106;-83
2022/03/24 07:48:06;;;;;;;91.10;52.57;;;7.70;99.90;;;;;;4799522;29;20046;-82
2022/03/24 07:50:49;;;;;;;85.40;49.20;;;7.80;99.90;;;;;;4800688;29;20418;-82
2022/03/24 07:53:49;;;;;;;83.37;50.23;;;8.00;99.90;;;;;;4829718;29;20053;-82
2022/03/24 07:56:16;;;;;;;84.97;44.93;;;8.20;99.90;;;;;;4811853;29;20050;-83
2022/03/24 07:58:42;;;;;;;83.73;43.07;;;8.40;99.90;;;;;;4819768;29;20138;-83
2022/03/24 08:01:08;;;;;;;74.37;40.63;;;8.50;99.90;;;;;;4836204;29;20111;-83
2022/03/24 08:03:34;;;;;;;71.97;38.33;;;8.70;99.90;;;;;;4803763;29;20060;-83
2022/03/24 08:06:03;;;;;;;76.67;44.27;;;8.80;99.90;;;;;;4790576;29;20398;-83
2022/03/24 08:08:30;;;;;;;73.23;42.47;;;8.90;99.90;;;;;;4805701;29;20483;-83
2022/03/24 08:10:57;;;;;;;73.57;40.50;;;9.00;99.90;;;;;;4817382;29;20054;-83
2022/03/24 08:13:23;;;;;;;73.70;40.10;;;9.20;99.90;;;;;;4806567;29;20034;-83
2022/03/24 08:15:50;;;;;;;71.03;40.67;;;9.40;99.90;;;;;;4820762;29;20145;-83
2022/03/24 08:18:20;;;;;;;69.53;38.80;;;9.50;99.90;;;;;;4805468;29;20072;-83
2022/03/24 08:20:51;;;;;;;70.47;41.10;;;9.60;99.90;;;;;;4835106;29;20071;-82
2022/03/24 08:23:17;;;;;;;69.83;40.90;;;9.70;99.90;;;;;;4814358;29;20131;-82
2022/03/24 08:25:49;;;;;;;70.00;39.53;;;9.90;99.90;;;;;;4821528;29;20030;-83
2022/03/24 08:28:16;;;;;;;70.23;40.00;;;10.00;99.90;;;;;;4780887;29;20111;-82
2022/03/24 08:30:44;;;;;;;67.67;39.20;;;10.20;99.90;;;;;;4819557;29;20038;-82
2022/03/24 08:33:10;;;;;;;70.47;41.67;;;10.30;99.90;;;;;;4806169;29;20046;-82
2022/03/24 08:35:37;;;;;;;72.27;42.00;;;10.50;99.90;;;;;;4819597;29;20761;-82
2022/03/24 08:38:03;;;;;;;75.07;41.03;;;10.60;99.90;;;;;;4820017;29;20059;-82
2022/03/24 08:40:29;;;;;;;75.03;42.73;;;10.70;99.90;;;;;;4841572;29;20030;-82
2022/03/24 08:42:55;;;;;;;66.00;38.50;;;10.90;99.90;;;;;;4834258;29;20050;-82
2022/03/24 08:45:22;;;;;;;71.93;40.90;;;11.00;99.90;;;;;;4814791;29;20110;-82
2022/03/24 08:47:47;;;;;;;68.37;39.73;;;11.10;99.90;;;;;;4801687;29;20042;-82
2022/03/24 08:50:14;;;;;;;68.17;38.47;;;11.30;99.90;;;;;;4792789;29;20038;-82
2022/03/24 08:52:43;;;;;;;63.10;36.93;;;11.40;99.90;;;;;;4824478;29;20128;-82
2022/03/24 08:55:11;;;;;;;71.63;37.87;;;11.50;99.90;;;;;;4810411;29;20125;-82
2022/03/24 08:57:37;;;;;;;62.00;36.20;;;11.70;99.90;;;;;;4792436;29;20046;-82
2022/03/24 09:00:15;;;;;;;61.00;34.00;;;11.80;99.90;;;;;;4809836;29;20056;-82
2022/03/24 09:02:50;;;;;;;55.37;32.20;;;12.00;99.90;;;;;;4795197;29;20412;-82
2022/03/24 09:05:18;;;;;;;46.63;25.63;;;12.10;99.90;;;;;;4809489;29;20513;-83
2022/03/24 09:07:45;;;;;;;45.93;26.70;;;12.30;99.90;;;;;;4804065;29;20046;-86
2022/03/24 09:10:12;;;;;;;48.57;27.47;;;12.50;99.90;;;;;;4808852;29;20121;-84
2022/03/24 09:12:49;;;;;;;51.87;28.87;;;12.60;99.90;;;;;;4807266;29;20053;-83
2022/03/24 09:15:22;;;;;;;48.43;28.23;;;12.70;99.90;;;;;;4805301;29;20058;-85
2022/03/24 09:17:48;;;;;;;49.42;30.33;;;12.80;96.30;;;;;;4807493;29;20125;-82
2022/03/24 09:20:19;;;;;;;49.67;29.63;;;12.90;99.90;;;;;;4806366;29;20526;-85
2022/03/24 09:22:47;;;;;;;49.83;30.07;;;12.90;99.30;;;;;;4806963;29;20399;-86
2022/03/24 09:25:14;;;;;;;49.40;29.43;;;13.00;99.90;;;;;;4798590;29;20034;-84
2022/03/24 09:27:42;;;;;;;49.57;27.93;;;13.10;98.20;;;;;;4794508;29;20137;-83
2022/03/24 09:30:09;;;;;;;49.03;26.83;;;13.20;96.70;;;;;;4792580;29;20103;-84
2022/03/24 09:32:35;;;;;;;50.53;27.83;;;13.30;94.00;;;;;;4778481;29;20564;-84
2022/03/24 09:35:03;;;;;;;47.60;28.07;;;13.40;92.00;;;;;;4788852;29;20042;-83
2022/03/24 09:37:29;;;;;;;46.93;28.43;;;13.50;91.60;;;;;;4796644;29;20128;-84
2022/03/24 09:39:55;;;;;;;47.57;28.73;;;13.50;90.90;;;;;;4793803;29;20089;-86
2022/03/24 09:42:24;;;;;;;50.27;29.60;;;13.60;90.70;;;;;;4785952;29;20094;-85
2022/03/24 09:44:50;;;;;;;51.53;29.13;;;13.70;91.10;;;;;;4807841;29;20078;-85
2022/03/24 09:47:16;;;;;;;48.77;29.83;;;13.80;90.80;;;;;;4773454;29;20510;-84
2022/03/24 09:49:43;;;;;;;52.77;30.03;;;13.90;90.30;;;;;;4807921;29;20051;-84
2022/03/24 09:52:11;;;;;;;46.37;28.93;;;13.90;90.00;;;;;;4803475;29;20053;-84
2022/03/24 09:54:38;;;;;;;48.00;29.33;;;14.00;90.30;;;;;;4807691;29;20541;-84
2022/03/24 09:57:06;;;;;;;50.47;31.20;;;14.10;90.20;;;;;;4807645;29;20047;-84
2022/03/24 09:59:33;;;;;;;52.00;31.33;;;14.20;89.70;;;;;;4807606;29;20046;-83
2022/03/24 10:02:01;;;;;;;55.20;31.80;;;14.30;88.60;;;;;;4814056;29;20047;-84
2022/03/24 10:04:28;;;;;;;57.23;31.60;;;14.40;85.70;;;;;;4825485;29;20038;-84
2022/03/24 10:07:02;;;;;;;51.13;30.87;;;14.50;88.80;;;;;;4810205;29;20054;-84
2022/03/24 10:09:56;;;;;;;46.93;29.97;;;14.70;83.80;;;;;;4822093;29;20053;-84
2022/03/24 10:12:28;;;;;;;52.13;31.07;;;14.80;80.20;;;;;;4825550;29;20058;-84
2022/03/24 10:14:58;;;;;;;50.80;30.57;;;14.80;82.40;;;;;;4807154;29;20064;-83
2022/03/24 10:17:24;;;;;;;50.47;30.57;;;14.90;82.00;;;;;;4822444;29;20045;-82
2022/03/24 10:20:15;;;;;;;49.87;30.97;;;15.00;82.60;;;;;;4810044;29;20042;-83
2022/03/24 10:22:58;;;;;;;49.60;29.43;;;15.10;81.20;;;;;;4820890;29;20049;-83
2022/03/24 10:25:31;;;;;;;50.47;29.87;;;15.20;76.30;;;;;;4823416;29;20517;-84
2022/03/24 10:28:17;;;;;;;46.00;28.13;;;15.20;78.30;;;;;;4810562;29;20054;-83
2022/03/24 10:30:48;;;;;;;50.33;29.93;;;15.30;75.70;;;;;;4811852;29;20147;-83
2022/03/24 10:33:30;;;;;;;46.40;29.05;;;15.40;75.80;;;;;;4819770;29;20042;-83
2022/03/24 10:36:12;;;;;;;49.73;29.60;;;15.50;71.30;;;;;;4838364;29;20526;-84
2022/03/24 10:38:46;;;;;;;;;;;15.50;68.90;;;;;;4811926;29;20045;-83
2022/03/24 10:41:21;;;;;;;51.90;29.53;;;15.60;67.60;;;;;;4808817;29;19967;-83
2022/03/24 10:43:52;;;;;;;50.97;29.98;;;15.70;71.30;;;;;;4824973;29;20046;-83
2022/03/24 10:46:27;;;;;;;47.08;28.65;;;15.80;71.10;;;;;;4795330;29;20566;-83
2022/03/24 10:48:53;;;;;;;47.38;28.30;;;15.90;68.80;;;;;;4803592;29;20038;-85
2022/03/24 10:51:31;;;;;;;46.63;27.25;;;16.00;68.80;;;;;;4823256;29;20398;-83
2022/03/24 10:54:34;;;;;;;39.47;24.95;;;16.00;66.10;;;;;;4824456;29;20048;-82
2022/03/24 10:57:06;;;;;;;45.20;26.65;;;16.10;62.60;;;;;;4791290;29;20058;-83
2022/03/24 10:59:39;;;;;;;41.40;23.30;;;16.10;64.10;;;;;;4825498;29;20049;-83
2022/03/24 11:02:05;;;;;;;35.03;21.65;;;16.20;61.80;;;;;;4802516;29;20051;-83
2022/03/24 11:04:32;;;;;;;38.10;23.05;;;16.30;60.30;;;;;;4791997;29;20100;-84
2022/03/24 11:06:57;;;;;;;38.50;22.48;;;16.40;59.50;;;;;;4763669;29;20103;-84
2022/03/24 11:09:27;;;;;;;45.15;27.60;;;16.40;58.00;;;;;;4810467;29;20479;-84
2022/03/24 11:12:24;;;;;;;45.65;25.80;;;16.60;59.40;;;;;;4788921;29;20043;-84
2022/03/24 11:14:51;;;;;;;41.00;24.38;;;16.70;56.60;;;;;;4805737;29;20057;-83
2022/03/24 11:17:25;;;;;;;40.30;24.48;;;16.70;57.20;;;;;;4776802;29;20123;-83
2022/03/24 11:20:04;;;;;;;33.65;22.83;;;16.90;57.50;;;;;;4802234;29;20046;-83
2022/03/24 11:22:39;;;;;;;29.88;19.15;;;17.00;55.50;;;;;;4806610;29;20043;-83
2022/03/24 11:25:05;;;;;;;32.20;19.38;;;17.00;52.30;;;;;;4791698;29;20103;-83
2022/03/24 11:27:32;;;;;;;36.08;21.55;;;17.20;54.40;;;;;;4776842;29;20054;-83
2022/03/24 11:30:00;;;;;;;34.25;19.75;;;17.30;53.90;;;;;;4794505;29;20519;-83
2022/03/24 11:32:27;;;;;;;34.30;21.13;;;17.40;53.60;;;;;;4791699;29;20101;-84
2022/03/24 11:34:53;;;;;;;32.47;19.40;;;17.50;53.40;;;;;;4783580;29;20110;-84
2022/03/24 11:37:20;;;;;;;37.53;22.58;;;17.50;52.80;;;;;;4791598;29;20460;-86
2022/03/24 11:40:14;;;;;;;32.38;19.83;;;17.40;51.90;;;;;;4806636;29;20046;-83
2022/03/24 11:42:57;;;;;;;38.78;21.95;;;17.40;51.30;;;;;;4804921;29;20046;-83
2022/03/24 11:45:27;;;;;;;34.67;18.20;;;17.50;51.30;;;;;;4791494;29;20039;-83
2022/03/24 11:48:03;;;;;;;40.00;18.52;;;17.50;52.70;;;;;;4805978;29;20043;-83
2022/03/24 11:50:52;;;;;;;31.38;19.13;;;17.50;51.70;;;;;;4792327;29;20051;-82
2022/03/24 11:53:30;;;;;;;31.05;19.60;;;17.40;50.80;;;;;;4808273;29;20051;-82
2022/03/24 11:55:59;;;;;;;37.67;19.45;;;17.50;52.20;;;;;;4807620;29;20056;-83
2022/03/24 11:58:30;;;;;;;32.67;19.10;;;17.60;52.20;;;;;;4809105;29;20060;-83
2022/03/24 12:00:56;;;;;;;33.92;19.95;;;17.70;52.00;;;;;;4809814;29;20047;-83
2022/03/24 12:03:53;;;;;;;35.17;19.83;;;17.70;51.50;;;;;;4808092;29;20053;-84
2022/03/24 12:06:20;;;;;;;35.05;19.90;;;17.70;49.50;;;;;;4807704;29;20069;-83
2022/03/24 12:09:03;;;;;;;32.13;18.90;;;17.60;51.40;;;;;;4827141;29;20065;-83
2022/03/24 12:11:32;;;;;;;33.97;19.73;;;17.80;50.70;;;;;;4821033;29;20038;-84
2022/03/24 12:13:58;;;;;;;33.80;19.27;;;17.90;51.10;;;;;;4812759;29;20045;-84
2022/03/24 12:16:25;;;;;;;28.23;16.83;;;17.90;51.40;;;;;;4825516;29;20490;-82
2022/03/24 12:18:52;;;;;;;34.67;18.48;;;17.90;50.80;;;;;;4811435;29;20077;-83
2022/03/24 12:21:36;;;;;;;34.67;19.60;;;17.80;50.80;;;;;;4813774;29;20038;-83
2022/03/24 12:24:09;;;;;;;31.75;19.83;;;17.80;49.60;;;;;;4810343;29;20042;-83
2022/03/24 12:26:53;;;;;;;34.75;19.77;;;17.80;50.10;;;;;;4813762;29;20045;-85
2022/03/24 12:29:21;;;;;;;35.70;20.45;;;17.80;50.60;;;;;;4828189;29;20056;-83
2022/03/24 12:32:02;;;;;;;32.47;19.48;;;17.80;51.40;;;;;;4833854;29;20054;-82
2022/03/24 12:34:44;;;;;;;34.28;19.38;;;18.00;51.60;;;;;;4828042;29;20052;-83
2022/03/24 12:37:25;;;;;;;37.50;19.85;;;18.00;50.10;;;;;;4813884;29;20129;-83
2022/03/24 12:40:09;;;;;;;32.03;18.90;;;18.00;50.10;;;;;;4812880;29;20490;-82
2022/03/24 12:42:55;;;;;;;31.63;18.77;;;18.00;50.30;;;;;;4821242;29;20046;-83
2022/03/24 12:45:26;;;;;;;34.17;18.73;;;18.00;50.00;;;;;;4811836;29;20124;-83